createdAt,value
2017-10-17T00:01:47.356Z,15.30
2017-10-17T00:04:15.648Z,14.37
2017-10-17T00:06:43.890Z,15.10
2017-10-17T00:09:12.162Z,12.20
2017-10-17T00:11:40.447Z,14.77
2017-10-17T00:14:08.738Z,14.53
2017-10-17T00:16:37.018Z,14.47
2017-10-17T00:19:05.292Z,13.73
2017-10-17T00:21:33.543Z,13.50
2017-10-17T00:24:02.584Z,14.27
2017-10-17T00:26:30.839Z,12.80
2017-10-17T00:28:59.109Z,14.77
2017-10-17T00:31:27.359Z,13.90
2017-10-17T00:33:55.698Z,14.57
2017-10-17T00:36:26.578Z,14.00
2017-10-17T00:38:54.852Z,13.83
2017-10-17T00:41:23.207Z,13.80
2017-10-17T00:43:51.589Z,13.43
2017-10-17T00:46:19.904Z,13.60
2017-10-17T00:48:48.246Z,14.53
2017-10-17T00:51:22.161Z,13.10
2017-10-17T00:53:50.550Z,13.70
2017-10-17T00:56:18.816Z,13.63
2017-10-17T00:58:47.082Z,13.27
2017-10-17T01:01:15.343Z,13.60
2017-10-17T01:03:44.388Z,14.30
2017-10-17T01:06:12.639Z,12.97
2017-10-17T01:08:40.922Z,12.63
2017-10-17T01:11:09.828Z,13.57
2017-10-17T01:13:38.123Z,13.50
2017-10-17T01:16:06.392Z,13.23
2017-10-17T01:18:34.695Z,13.70
2017-10-17T01:21:08.723Z,14.67
2017-10-17T01:23:44.710Z,13.57
2017-10-17T01:26:18.551Z,14.10
2017-10-17T01:28:47.577Z,14.27
2017-10-17T01:31:15.867Z,14.00
2017-10-17T01:33:45.618Z,14.30
2017-10-17T01:36:14.652Z,14.70
2017-10-17T01:38:44.567Z,13.70
2017-10-17T01:41:12.832Z,13.80
2017-10-17T01:46:49.539Z,13.63
2017-10-17T01:49:32.976Z,14.20
2017-10-17T01:52:07.595Z,15.60
2017-10-17T01:54:40.952Z,13.60
2017-10-17T01:57:09.268Z,13.83
2017-10-17T01:59:41.040Z,13.37
2017-10-17T02:02:10.063Z,15.30
2017-10-17T02:04:38.335Z,14.70
2017-10-17T02:07:06.596Z,13.83
2017-10-17T02:09:43.237Z,15.63
2017-10-17T02:12:11.513Z,14.77
2017-10-17T02:14:39.807Z,14.63
2017-10-17T02:17:08.067Z,14.93
2017-10-17T02:19:36.366Z,14.37
2017-10-17T02:22:04.616Z,14.90
2017-10-17T02:24:44.535Z,14.60
2017-10-17T02:27:12.788Z,14.07
2017-10-17T02:29:46.188Z,13.43
2017-10-17T02:32:14.499Z,13.00
2017-10-17T02:34:43.908Z,13.83
2017-10-17T02:37:12.920Z,12.50
2017-10-17T02:39:41.189Z,12.77
2017-10-17T02:42:10.315Z,14.30
2017-10-17T02:44:38.600Z,14.27
2017-10-17T02:47:07.572Z,15.30
2017-10-17T02:49:38.485Z,15.57
2017-10-17T02:52:07.676Z,16.20
2017-10-17T02:54:35.959Z,16.17
2017-10-17T02:57:04.219Z,15.03
2017-10-17T02:59:33.404Z,14.27
2017-10-17T03:02:02.485Z,14.10
2017-10-17T03:04:36.496Z,13.73
2017-10-17T03:07:04.742Z,14.83
2017-10-17T03:09:32.999Z,15.03
2017-10-17T03:12:01.264Z,15.23
2017-10-17T03:14:30.391Z,16.27
2017-10-17T03:16:58.663Z,15.23
2017-10-17T03:19:26.963Z,16.57
2017-10-17T03:21:55.955Z,15.17
2017-10-17T03:24:27.899Z,15.20
2017-10-17T03:26:56.164Z,13.90
2017-10-17T03:29:24.425Z,14.97
2017-10-17T03:31:52.690Z,15.20
2017-10-17T03:34:21.499Z,15.10
2017-10-17T03:40:20.752Z,12.93
2017-10-17T03:45:43.467Z,14.80
2017-10-17T03:48:11.488Z,14.17
2017-10-17T03:50:39.543Z,14.23
2017-10-17T03:56:03.109Z,13.57
2017-10-17T03:58:33.990Z,13.90
2017-10-17T04:01:02.024Z,14.33
2017-10-17T04:06:58.483Z,13.20
2017-10-17T04:09:26.514Z,15.27
2017-10-17T04:11:54.627Z,16.40
2017-10-17T04:14:26.883Z,15.87
2017-10-17T04:20:14.507Z,15.00
2017-10-17T04:22:42.547Z,15.03
2017-10-17T04:25:18.098Z,14.30
2017-10-17T04:27:46.859Z,14.23
2017-10-17T04:33:22.919Z,12.47
2017-10-17T04:36:02.655Z,13.03
2017-10-17T04:38:30.693Z,12.80
2017-10-17T04:40:58.735Z,12.57
2017-10-17T04:46:36.484Z,12.33
2017-10-17T04:49:11.956Z,14.43
2017-10-17T04:51:44.562Z,13.07
2017-10-17T04:54:33.160Z,12.63
2017-10-17T04:57:02.660Z,12.10
2017-10-17T04:59:39.381Z,11.90
2017-10-17T05:02:15.950Z,12.97
2017-10-17T05:04:48.470Z,12.20
2017-10-17T05:07:18.830Z,12.60
2017-10-17T05:09:50.316Z,10.40
2017-10-17T05:12:22.540Z,11.10
2017-10-17T05:14:50.563Z,10.93
2017-10-17T05:17:25.013Z,11.27
2017-10-17T05:19:55.656Z,12.03
2017-10-17T05:22:29.137Z,11.60
2017-10-17T05:25:00.830Z,11.10
2017-10-17T05:30:41.752Z,14.37
2017-10-17T05:33:20.327Z,14.80
2017-10-17T05:35:48.358Z,14.53
2017-10-17T05:38:16.391Z,13.70
2017-10-17T05:40:44.429Z,14.00
2017-10-17T05:43:14.045Z,17.13
2017-10-17T05:45:42.838Z,17.20
2017-10-17T05:48:14.573Z,14.30
2017-10-17T05:50:55.239Z,13.93
2017-10-17T05:53:23.251Z,12.43
2017-10-17T05:55:52.055Z,12.70
2017-10-17T05:58:20.099Z,13.00
2017-10-17T06:00:48.132Z,13.17
2017-10-17T06:03:16.138Z,14.70
2017-10-17T06:05:44.181Z,14.17
2017-10-17T06:08:12.193Z,13.17
2017-10-17T06:10:40.242Z,15.33
2017-10-17T06:13:08.287Z,13.63
2017-10-17T06:15:36.322Z,12.80
2017-10-17T06:18:04.596Z,13.40
2017-10-17T06:20:33.666Z,13.30
2017-10-17T06:23:01.921Z,12.80
2017-10-17T06:25:30.195Z,14.03
2017-10-17T06:27:58.501Z,12.87
2017-10-17T06:30:26.764Z,12.37
2017-10-17T06:32:55.028Z,13.00
2017-10-17T06:35:23.304Z,13.70
2017-10-17T06:37:51.556Z,14.10
2017-10-17T06:40:20.604Z,13.63
2017-10-17T06:42:48.854Z,13.20
2017-10-17T06:45:17.127Z,13.97
2017-10-17T06:47:46.143Z,14.70
2017-10-17T06:50:14.960Z,14.67
2017-10-17T06:52:43.228Z,14.27
2017-10-17T06:55:11.491Z,14.03
2017-10-17T06:57:39.756Z,13.60
2017-10-17T07:00:08.789Z,13.90
2017-10-17T07:02:37.067Z,13.40
2017-10-17T07:05:05.343Z,13.30
2017-10-17T07:07:33.618Z,15.50
2017-10-17T07:10:01.872Z,15.37
2017-10-17T07:12:31.566Z,15.50
2017-10-17T07:14:59.862Z,15.70
2017-10-17T07:17:28.896Z,15.60
2017-10-17T07:19:57.150Z,16.57
2017-10-17T07:22:25.435Z,18.60
2017-10-17T07:24:54.516Z,16.37
2017-10-17T07:27:22.771Z,16.30
2017-10-17T07:29:51.026Z,16.90
2017-10-17T07:32:20.099Z,16.17
2017-10-17T07:34:49.141Z,17.87
2017-10-17T07:37:17.390Z,15.93
2017-10-17T07:39:45.640Z,17.00
2017-10-17T07:42:13.906Z,16.77
2017-10-17T07:44:42.146Z,17.53
2017-10-17T07:47:10.438Z,16.77
2017-10-17T07:49:38.699Z,17.90
2017-10-17T07:52:06.975Z,17.43
2017-10-17T07:54:35.262Z,17.33
2017-10-17T07:57:03.535Z,18.37
2017-10-17T07:59:31.788Z,18.67
2017-10-17T08:02:00.059Z,19.07
2017-10-17T08:04:28.311Z,19.07
2017-10-17T08:06:56.576Z,19.40
2017-10-17T08:09:24.839Z,17.90
2017-10-17T08:11:53.881Z,18.27
2017-10-17T08:14:22.927Z,20.53
2017-10-17T08:16:51.974Z,20.93
2017-10-17T08:19:20.226Z,19.93
2017-10-17T08:21:48.503Z,18.67
2017-10-17T08:24:16.754Z,19.63
2017-10-17T08:26:45.029Z,21.43
2017-10-17T08:29:14.798Z,20.10
2017-10-17T08:31:43.066Z,21.80
2017-10-17T08:34:11.332Z,22.40
2017-10-17T08:36:39.638Z,22.70
2017-10-17T08:39:10.404Z,23.27
2017-10-17T08:41:38.675Z,22.60
2017-10-17T08:44:06.959Z,23.53
2017-10-17T08:46:35.239Z,21.90
2017-10-17T08:49:03.506Z,22.27
2017-10-17T08:51:31.762Z,21.37
2017-10-17T08:54:00.018Z,23.17
2017-10-17T08:56:28.300Z,23.23
2017-10-17T08:58:56.583Z,21.40
2017-10-17T09:01:25.619Z,24.70
2017-10-17T09:03:53.884Z,23.53
2017-10-17T09:06:22.170Z,24.57
2017-10-17T09:08:50.422Z,24.40
2017-10-17T09:11:19.459Z,23.33
2017-10-17T09:13:47.719Z,25.57
2017-10-17T09:16:16.747Z,25.67
2017-10-17T09:18:44.999Z,24.67
2017-10-17T09:21:14.043Z,24.67
2017-10-17T09:23:42.534Z,25.43
2017-10-17T09:26:11.140Z,24.87
2017-10-17T09:28:39.581Z,27.53
2017-10-17T09:31:08.224Z,24.60
2017-10-17T09:33:36.543Z,24.13
2017-10-17T09:36:04.803Z,26.27
2017-10-17T09:38:33.850Z,22.87
2017-10-17T09:41:02.127Z,22.43
2017-10-17T09:43:30.512Z,22.90
2017-10-17T09:45:58.792Z,23.87
2017-10-17T09:48:27.057Z,21.90
2017-10-17T09:50:55.306Z,22.20
2017-10-17T09:53:24.346Z,21.00
2017-10-17T09:55:52.602Z,22.17
2017-10-17T09:58:21.636Z,22.00
2017-10-17T10:00:49.887Z,22.30
2017-10-17T10:03:18.156Z,22.80
2017-10-17T10:05:47.174Z,23.97
2017-10-17T10:08:15.460Z,22.83
2017-10-17T10:10:43.712Z,22.47
2017-10-17T10:13:12.769Z,23.17
2017-10-17T10:15:41.031Z,21.90
2017-10-17T10:18:09.310Z,22.70
2017-10-17T10:20:38.348Z,22.40
2017-10-17T10:23:06.637Z,20.40
2017-10-17T10:25:34.896Z,21.10
2017-10-17T10:28:03.207Z,23.07
2017-10-17T10:30:31.499Z,22.53
2017-10-17T10:33:00.534Z,20.30
2017-10-17T10:35:28.787Z,21.63
2017-10-17T10:37:57.082Z,24.47
2017-10-17T10:40:25.341Z,21.47
2017-10-17T10:42:53.602Z,19.30
2017-10-17T10:45:21.863Z,21.47
2017-10-17T10:47:50.134Z,21.97
2017-10-17T10:50:18.377Z,21.40
2017-10-17T10:52:47.424Z,21.40
2017-10-17T10:55:15.673Z,23.53
2017-10-17T10:57:43.944Z,22.37
2017-10-17T11:00:12.990Z,23.63
2017-10-17T11:02:42.130Z,20.97
2017-10-17T11:05:11.151Z,20.03
2017-10-17T11:07:39.412Z,21.40
2017-10-17T11:10:08.471Z,20.43
2017-10-17T11:12:36.739Z,18.87
2017-10-17T11:15:05.011Z,19.10
2017-10-17T11:17:33.287Z,20.33
2017-10-17T11:20:01.547Z,18.63
2017-10-17T11:22:29.824Z,17.60
2017-10-17T11:24:58.840Z,17.97
2017-10-17T11:27:27.117Z,16.63
2017-10-17T11:29:55.366Z,17.70
2017-10-17T11:32:24.399Z,18.70
2017-10-17T11:34:52.680Z,22.23
2017-10-17T11:37:20.949Z,17.80
2017-10-17T11:39:49.964Z,18.67
2017-10-17T11:42:30.073Z,16.27
2017-10-17T11:44:58.321Z,16.03
2017-10-17T11:47:26.599Z,16.33
2017-10-17T11:49:54.853Z,16.07
2017-10-17T11:52:23.120Z,16.07
2017-10-17T11:54:52.145Z,16.67
2017-10-17T11:57:20.407Z,14.50
2017-10-17T11:59:48.667Z,15.67
2017-10-17T12:02:17.818Z,16.03
2017-10-17T12:04:46.077Z,17.50
2017-10-17T12:07:14.360Z,14.73
2017-10-17T12:09:42.623Z,15.47
2017-10-17T12:12:10.900Z,15.90
2017-10-17T12:14:39.923Z,15.20
2017-10-17T12:17:08.211Z,14.90
2017-10-17T12:19:36.472Z,13.60
2017-10-17T12:22:04.754Z,13.77
2017-10-17T12:24:33.014Z,17.67
2017-10-17T12:27:01.918Z,15.10
2017-10-17T12:29:30.946Z,15.00
2017-10-17T12:31:59.202Z,15.33
2017-10-17T12:34:28.252Z,14.80
2017-10-17T12:36:56.498Z,14.03
2017-10-17T12:39:24.847Z,14.00
2017-10-17T12:41:53.076Z,14.80
2017-10-17T12:44:21.337Z,13.70
2017-10-17T12:46:49.592Z,14.43
2017-10-17T12:49:18.628Z,14.17
2017-10-17T12:51:46.886Z,14.40
2017-10-17T12:54:15.941Z,13.70
2017-10-17T12:56:44.182Z,14.20
2017-10-17T12:59:12.462Z,14.60
2017-10-17T13:01:41.590Z,14.00
2017-10-17T13:04:09.863Z,14.93
2017-10-17T13:06:38.125Z,13.00
2017-10-17T13:09:06.424Z,14.20
2017-10-17T13:11:34.711Z,13.30
2017-10-17T13:14:02.978Z,15.17
2017-10-17T13:16:31.230Z,14.53
2017-10-17T13:19:00.265Z,15.40
2017-10-17T13:21:28.534Z,15.57
2017-10-17T13:23:56.801Z,14.53
2017-10-17T13:26:25.050Z,15.03
2017-10-17T13:28:54.086Z,15.80
2017-10-17T13:31:22.359Z,15.33
2017-10-17T13:33:51.388Z,14.63
2017-10-17T13:36:19.646Z,13.80
2017-10-17T13:38:47.922Z,14.57
2017-10-17T13:41:16.174Z,15.50
2017-10-17T13:43:44.450Z,19.27
2017-10-17T13:46:12.703Z,16.00
2017-10-17T13:48:40.977Z,17.80
2017-10-17T13:51:09.244Z,18.33
2017-10-17T13:53:37.527Z,16.13
2017-10-17T13:56:05.781Z,13.27
2017-10-17T13:58:34.824Z,14.80
2017-10-17T14:01:03.071Z,14.50
2017-10-17T14:03:31.351Z,13.20
2017-10-17T14:05:59.600Z,14.07
2017-10-17T14:08:28.648Z,13.80
2017-10-17T14:10:56.894Z,12.63
2017-10-17T14:13:25.931Z,11.63
2017-10-17T14:15:54.178Z,13.37
2017-10-17T14:18:22.490Z,11.90
2017-10-17T14:20:50.765Z,11.93
2017-10-17T14:23:19.031Z,12.40
2017-10-17T14:25:48.083Z,13.60
2017-10-17T14:28:16.359Z,13.00
2017-10-17T14:30:44.612Z,12.57
2017-10-17T14:33:12.887Z,15.10
2017-10-17T14:35:41.160Z,13.37
2017-10-17T14:38:09.451Z,10.73
2017-10-17T14:40:37.766Z,11.77
2017-10-17T14:43:29.730Z,10.83
2017-10-17T14:46:00.801Z,13.90
2017-10-17T14:48:29.836Z,14.80
2017-10-17T14:50:58.087Z,13.23
2017-10-17T14:53:26.364Z,13.50
2017-10-17T14:55:54.628Z,13.23
2017-10-17T14:58:22.883Z,13.20
2017-10-17T15:00:52.650Z,14.10
2017-10-17T15:03:20.920Z,13.70
2017-10-17T15:05:49.217Z,13.77
2017-10-17T15:08:17.487Z,13.30
2017-10-17T15:10:45.746Z,13.20
2017-10-17T15:13:14.781Z,14.50
2017-10-17T15:15:43.043Z,20.60
2017-10-17T15:18:11.323Z,19.53
2017-10-17T15:20:39.582Z,14.57
2017-10-17T15:23:08.634Z,14.33
2017-10-17T15:25:36.891Z,14.80
2017-10-17T15:28:05.186Z,14.00
2017-10-17T15:30:35.170Z,13.13
2017-10-17T15:33:04.452Z,14.43
2017-10-17T15:35:32.712Z,13.50
2017-10-17T15:38:00.975Z,14.27
2017-10-17T15:40:29.231Z,13.60
2017-10-17T15:42:57.514Z,11.57
2017-10-17T15:45:25.770Z,12.47
2017-10-17T15:47:54.815Z,14.70
2017-10-17T15:50:23.070Z,14.70
2017-10-17T15:52:51.356Z,13.70
2017-10-17T15:55:20.383Z,14.90
2017-10-17T15:57:48.683Z,12.77
2017-10-17T16:00:16.955Z,14.40
2017-10-17T16:02:45.207Z,13.03
2017-10-17T16:05:13.476Z,13.17
2017-10-17T16:07:41.739Z,13.10
2017-10-17T16:10:10.774Z,13.27
2017-10-17T16:12:39.035Z,13.50
2017-10-17T16:15:07.311Z,16.83
2017-10-17T16:17:35.576Z,15.50
2017-10-17T16:20:04.628Z,14.50
2017-10-17T16:22:32.879Z,13.47
2017-10-17T16:25:01.240Z,13.53
2017-10-17T16:27:29.474Z,13.57
2017-10-17T16:29:57.733Z,15.30
2017-10-17T16:32:26.000Z,13.67
2017-10-17T16:34:54.264Z,13.07
2017-10-17T16:37:23.279Z,14.07
2017-10-17T16:39:51.547Z,11.83
2017-10-17T16:42:20.571Z,14.40
2017-10-17T16:44:48.835Z,12.10
2017-10-17T16:47:17.088Z,14.03
2017-10-17T16:49:45.674Z,15.93
2017-10-17T16:52:13.924Z,15.63
2017-10-17T16:54:42.187Z,16.33
2017-10-17T16:57:10.445Z,18.00
2017-10-17T16:59:38.730Z,16.37
2017-10-17T17:02:07.073Z,15.80
2017-10-17T17:04:36.863Z,16.03
2017-10-17T17:07:05.135Z,15.53
2017-10-17T17:09:33.455Z,15.50
2017-10-17T17:12:01.708Z,17.30
2017-10-17T17:14:29.972Z,15.37
2017-10-17T17:16:58.243Z,15.57
2017-10-17T17:19:26.507Z,17.60
2017-10-17T17:21:55.579Z,16.30
2017-10-17T17:24:23.832Z,15.37
2017-10-17T17:26:52.101Z,14.90
2017-10-17T17:29:21.022Z,16.47
2017-10-17T17:31:49.294Z,16.50
2017-10-17T17:34:18.319Z,16.30
2017-10-17T17:36:46.576Z,16.10
2017-10-17T17:39:15.597Z,18.20
2017-10-17T17:41:44.355Z,16.03
2017-10-17T17:44:12.630Z,18.33
2017-10-17T17:46:40.879Z,15.73
2017-10-17T17:49:10.059Z,16.30
2017-10-17T17:51:38.318Z,16.57
2017-10-17T17:54:06.587Z,17.83
2017-10-17T17:56:34.850Z,17.60
2017-10-17T17:59:03.125Z,18.37
2017-10-17T18:01:31.381Z,18.03
2017-10-17T18:04:00.418Z,17.73
2017-10-17T18:06:28.680Z,18.10
2017-10-17T18:08:56.954Z,16.80
2017-10-17T18:11:25.227Z,17.97
2017-10-17T18:13:54.260Z,17.80
2017-10-17T18:16:22.509Z,16.57
2017-10-17T18:18:51.542Z,18.00
2017-10-17T18:21:19.833Z,16.67
2017-10-17T18:23:48.102Z,17.37
2017-10-17T18:26:16.439Z,16.77
2017-10-17T18:28:44.705Z,18.00
2017-10-17T18:31:14.467Z,16.73
2017-10-17T18:33:42.745Z,15.20
2017-10-17T18:36:10.992Z,17.63
2017-10-17T18:38:39.302Z,16.50
2017-10-17T18:41:08.340Z,16.30
2017-10-17T18:43:36.644Z,15.77
2017-10-17T18:46:04.885Z,15.43
2017-10-17T18:48:33.138Z,15.80
2017-10-17T18:51:01.413Z,15.13
2017-10-17T18:53:30.429Z,14.73
2017-10-17T18:55:58.700Z,14.77
2017-10-17T18:58:26.955Z,15.77
2017-10-17T19:00:55.294Z,14.87
2017-10-17T19:03:23.559Z,16.10
2017-10-17T19:05:52.555Z,14.80
2017-10-17T19:08:20.807Z,16.57
2017-10-17T19:10:49.848Z,14.47
2017-10-17T19:13:18.107Z,14.63
2017-10-17T19:15:46.389Z,13.90
2017-10-17T19:18:14.656Z,13.77
2017-10-17T19:20:43.698Z,14.27
2017-10-17T19:23:11.944Z,14.60
2017-10-17T19:25:40.226Z,15.23
2017-10-17T19:28:09.238Z,14.13
2017-10-17T19:30:37.518Z,16.00
2017-10-17T19:33:05.774Z,15.50
2017-10-17T19:35:34.811Z,15.83
2017-10-17T19:38:03.074Z,14.83
2017-10-17T19:40:31.364Z,13.70
2017-10-17T19:42:59.584Z,15.60
2017-10-17T19:45:30.367Z,16.13
2017-10-17T19:47:58.682Z,15.17
2017-10-17T19:50:26.937Z,15.27
2017-10-17T19:52:55.191Z,13.17
2017-10-17T19:55:23.475Z,13.50
2017-10-17T19:57:52.497Z,13.87
2017-10-17T20:00:20.772Z,12.73
2017-10-17T20:02:49.055Z,14.17
2017-10-17T20:05:17.328Z,14.17
2017-10-17T20:07:46.344Z,13.17
2017-10-17T20:10:14.615Z,13.53
2017-10-17T20:12:42.872Z,14.30
2017-10-17T20:15:11.175Z,14.47
2017-10-17T20:17:40.207Z,13.57
2017-10-17T20:20:08.487Z,14.27
2017-10-17T20:22:36.740Z,13.93
2017-10-17T20:25:05.032Z,13.03
2017-10-17T20:27:33.289Z,15.60
2017-10-17T20:30:02.323Z,14.40
2017-10-17T20:32:30.581Z,14.60
2017-10-17T20:34:59.623Z,12.83
2017-10-17T20:37:27.876Z,14.50
2017-10-17T20:39:56.176Z,14.30
2017-10-17T20:42:24.426Z,15.67
2017-10-17T20:44:53.465Z,13.33
2017-10-17T20:47:21.727Z,13.50
2017-10-17T20:49:49.990Z,14.73
2017-10-17T20:52:18.244Z,13.43
2017-10-17T20:54:46.561Z,14.50
2017-10-17T20:57:15.104Z,14.60
2017-10-17T20:59:43.613Z,14.20
2017-10-17T21:02:12.280Z,15.10
2017-10-17T21:04:40.612Z,15.20
2017-10-17T21:07:09.624Z,15.57
2017-10-17T21:09:37.896Z,15.60
2017-10-17T21:12:06.165Z,14.43
2017-10-17T21:14:35.198Z,15.50
2017-10-17T21:17:03.450Z,13.93
2017-10-17T21:19:31.724Z,15.40
2017-10-17T21:21:59.973Z,16.90
2017-10-17T21:24:28.311Z,14.47
2017-10-17T21:26:56.567Z,16.23
2017-10-17T21:29:24.851Z,15.27
2017-10-17T21:31:53.103Z,14.23
2017-10-17T21:34:22.134Z,14.40
2017-10-17T21:36:50.381Z,14.40
2017-10-17T21:39:19.414Z,14.23
2017-10-17T21:41:47.675Z,15.27
2017-10-17T21:44:16.695Z,16.00
2017-10-17T21:46:44.967Z,14.90
2017-10-17T21:49:14.010Z,16.17
2017-10-17T21:51:42.278Z,15.13
2017-10-17T21:54:10.542Z,15.47
2017-10-17T21:56:38.809Z,15.07
2017-10-17T21:59:07.070Z,14.60
2017-10-17T22:01:35.351Z,16.13
2017-10-17T22:04:04.416Z,13.90
2017-10-17T22:06:32.668Z,15.23
2017-10-17T22:09:00.934Z,15.37
2017-10-17T22:11:29.197Z,14.30
2017-10-17T22:13:58.263Z,13.97
2017-10-17T22:16:26.509Z,14.63
2017-10-17T22:18:54.759Z,14.90
2017-10-17T22:21:23.800Z,14.50
2017-10-17T22:23:52.051Z,13.47
2017-10-17T22:26:21.093Z,15.30
2017-10-17T22:28:49.347Z,14.37
2017-10-17T22:31:17.620Z,15.63
2017-10-17T22:33:45.871Z,14.43
2017-10-17T22:36:14.135Z,14.40
2017-10-17T22:38:42.384Z,14.20
2017-10-17T22:41:10.675Z,14.10
2017-10-17T22:43:38.926Z,14.90
2017-10-17T22:46:07.203Z,15.90
2017-10-17T22:48:35.475Z,15.13
2017-10-17T22:51:04.531Z,14.73
2017-10-17T22:53:32.787Z,15.00
2017-10-17T22:56:01.059Z,14.60
2017-10-17T22:58:29.335Z,14.37
2017-10-17T23:00:57.604Z,13.43
2017-10-17T23:03:26.627Z,14.07
2017-10-17T23:05:54.888Z,14.30
2017-10-17T23:08:23.154Z,13.97
2017-10-17T23:10:52.193Z,14.70
2017-10-17T23:13:20.455Z,15.47
2017-10-17T23:15:48.719Z,14.30
2017-10-17T23:21:18.268Z,13.97
2017-10-17T23:23:46.516Z,14.90
2017-10-17T23:26:14.791Z,14.00
2017-10-17T23:28:43.043Z,13.50
2017-10-17T23:31:11.319Z,14.07
2017-10-17T23:33:39.579Z,14.80
2017-10-17T23:36:07.844Z,14.30
2017-10-17T23:38:36.866Z,13.80
2017-10-17T23:41:05.135Z,13.33
2017-10-17T23:43:33.392Z,14.60
2017-10-17T23:46:02.427Z,13.90
2017-10-17T23:48:30.690Z,13.83
2017-10-17T23:50:59.723Z,13.67
2017-10-17T23:53:27.979Z,15.40
2017-10-17T23:55:56.282Z,13.60
2017-10-17T23:58:24.539Z,14.00
